aviador You're here:

KAIB Decoded Metar

in
Report Time2018-07-22 04:35:00
UTC Time2018-07-22 04:55:49
Flight Rules vfr VFR
Wind150° at 04 kt
W.Decomp.*RWY 11: 3.1 kt HW 2.6 kt RCW
RWY 23: 0.7 kt HW 3.9 kt LCW
W.Rank150° ranks 25
Current wind is below 150° avg. (5.0)
Visibility9999 m
Phenomena:N/A
Clouds:Scattered 120 Hf
Expected CloudBase > 8,400 ft AGL from Temp-Dew spread
CeilingNone
Temp27°C
Dew Point06°C (26% RH)
Heat Index26.3°C
AAT24.6°C
QNH1025 hPa
Raw Report
KAIB 220435Z AUTO 15004KT 10SM SCT120 27/06 A3028 RMK AO2=

Extra information for KAIB:More info

Social comments